sensor_id;sensor_type;location;lat;lon;timestamp;pressure;altitude;pressure_sealevel;temperature;humidity
20350;BME280;10332;50.208;18.988;2022-08-04T00:07:25;98216.09;;;21.95;73.38
20350;BME280;10332;50.208;18.988;2022-08-04T00:10:15;98209.38;;;21.76;74.57
20350;BME280;10332;50.208;18.988;2022-08-04T00:12:48;98202.44;;;21.67;75.08
20350;BME280;10332;50.208;18.988;2022-08-04T00:15:18;98201.66;;;21.58;75.31
20350;BME280;10332;50.208;18.988;2022-08-04T00:18:14;98203.16;;;21.44;76.50
20350;BME280;10332;50.208;18.988;2022-08-04T00:20:44;98194.84;;;21.47;76.14
20350;BME280;10332;50.208;18.988;2022-08-04T00:23:13;98202.66;;;21.49;75.88
20350;BME280;10332;50.208;18.988;2022-08-04T00:25:42;98193.53;;;21.43;76.59
20350;BME280;10332;50.208;18.988;2022-08-04T00:28:11;98202.69;;;21.41;76.79
20350;BME280;10332;50.208;18.988;2022-08-04T00:30:41;98202.53;;;21.42;76.89
20350;BME280;10332;50.208;18.988;2022-08-04T00:33:09;98201.19;;;21.38;76.71
20350;BME280;10332;50.208;18.988;2022-08-04T00:35:38;98203.53;;;21.33;76.50
20350;BME280;10332;50.208;18.988;2022-08-04T00:38:08;98204.72;;;21.31;76.84
20350;BME280;10332;50.208;18.988;2022-08-04T00:43:33;98204.22;;;21.27;76.32
20350;BME280;10332;50.208;18.988;2022-08-04T00:46:33;98210.50;;;21.26;76.01
20350;BME280;10332;50.208;18.988;2022-08-04T00:55:35;98209.31;;;21.20;76.25
20350;BME280;10332;50.208;18.988;2022-08-04T00:58:49;98212.97;;;21.19;76.53
20350;BME280;10332;50.208;18.988;2022-08-04T01:04:43;98201.88;;;21.16;76.37
20350;BME280;10332;50.208;18.988;2022-08-04T01:07:45;98216.50;;;21.12;76.69
20350;BME280;10332;50.208;18.988;2022-08-04T01:15:59;98206.53;;;21.06;76.85
20350;BME280;10332;50.208;18.988;2022-08-04T01:18:42;98212.69;;;21.06;76.66
20350;BME280;10332;50.208;18.988;2022-08-04T01:30:39;98213.03;;;20.95;77.24
20350;BME280;10332;50.208;18.988;2022-08-04T01:33:12;98209.88;;;20.91;77.25
20350;BME280;10332;50.208;18.988;2022-08-04T01:35:50;98205.06;;;20.87;77.37
20350;BME280;10332;50.208;18.988;2022-08-04T01:38:28;98208.88;;;20.84;77.55
20350;BME280;10332;50.208;18.988;2022-08-04T01:41:03;98204.41;;;20.85;77.26
20350;BME280;10332;50.208;18.988;2022-08-04T01:43:35;98194.13;;;20.82;77.33
20350;BME280;10332;50.208;18.988;2022-08-04T01:46:14;98202.59;;;20.77;77.72
20350;BME280;10332;50.208;18.988;2022-08-04T01:48:45;98191.97;;;20.77;77.39
20350;BME280;10332;50.208;18.988;2022-08-04T01:51:13;98198.28;;;20.76;77.86
20350;BME280;10332;50.208;18.988;2022-08-04T01:53:42;98203.72;;;20.75;77.81
20350;BME280;10332;50.208;18.988;2022-08-04T01:56:11;98209.38;;;20.72;77.81
20350;BME280;10332;50.208;18.988;2022-08-04T01:58:40;98199.75;;;20.71;78.01
20350;BME280;10332;50.208;18.988;2022-08-04T02:01:10;98196.94;;;20.64;78.58
20350;BME280;10332;50.208;18.988;2022-08-04T02:03:43;98196.94;;;20.64;78.19
20350;BME280;10332;50.208;18.988;2022-08-04T02:10:27;98195.44;;;20.53;78.46
20350;BME280;10332;50.208;18.988;2022-08-04T02:21:18;98193.63;;;20.54;78.30
20350;BME280;10332;50.208;18.988;2022-08-04T02:23:58;98186.84;;;20.51;78.67
20350;BME280;10332;50.208;18.988;2022-08-04T02:26:28;98183.19;;;20.52;78.54
20350;BME280;10332;50.208;18.988;2022-08-04T02:29:19;98187.81;;;20.50;79.03
20350;BME280;10332;50.208;18.988;2022-08-04T02:31:53;98183.31;;;20.42;78.81
20350;BME280;10332;50.208;18.988;2022-08-04T02:35:01;98182.47;;;20.34;79.19
20350;BME280;10332;50.208;18.988;2022-08-04T02:37:34;98172.16;;;20.31;79.26
20350;BME280;10332;50.208;18.988;2022-08-04T02:40:05;98167.88;;;20.30;79.08
20350;BME280;10332;50.208;18.988;2022-08-04T02:42:33;98170.50;;;20.30;79.24
20350;BME280;10332;50.208;18.988;2022-08-04T02:45:04;98177.81;;;20.28;79.15
20350;BME280;10332;50.208;18.988;2022-08-04T02:47:33;98170.03;;;20.26;79.25
20350;BME280;10332;50.208;18.988;2022-08-04T02:50:21;98167.03;;;20.21;79.69
20350;BME280;10332;50.208;18.988;2022-08-04T02:52:59;98174.16;;;20.21;79.95
20350;BME280;10332;50.208;18.988;2022-08-04T02:55:29;98166.88;;;20.23;80.04
20350;BME280;10332;50.208;18.988;2022-08-04T02:58:01;98170.84;;;20.19;79.79
20350;BME280;10332;50.208;18.988;2022-08-04T03:00:30;98176.13;;;20.19;79.83
20350;BME280;10332;50.208;18.988;2022-08-04T03:05:35;98183.25;;;20.10;79.82
20350;BME280;10332;50.208;18.988;2022-08-04T03:30:12;98184.91;;;20.11;80.17
20350;BME280;10332;50.208;18.988;2022-08-04T03:33:17;98187.72;;;20.09;80.08
20350;BME280;10332;50.208;18.988;2022-08-04T03:48:17;98193.72;;;20.20;79.78
20350;BME280;10332;50.208;18.988;2022-08-04T04:00:20;98195.72;;;20.26;79.90
20350;BME280;10332;50.208;18.988;2022-08-04T04:15:38;98190.59;;;20.24;80.46
20350;BME280;10332;50.208;18.988;2022-08-04T04:18:55;98195.06;;;20.32;80.32
20350;BME280;10332;50.208;18.988;2022-08-04T04:27:55;98196.44;;;20.52;79.31
20350;BME280;10332;50.208;18.988;2022-08-04T04:34:34;98199.75;;;20.71;79.32
20350;BME280;10332;50.208;18.988;2022-08-04T04:37:19;98202.59;;;20.77;79.25
20350;BME280;10332;50.208;18.988;2022-08-04T04:46:02;98198.41;;;20.91;78.71
20350;BME280;10332;50.208;18.988;2022-08-04T04:49:03;98205.06;;;20.95;79.76
20350;BME280;10332;50.208;18.988;2022-08-04T04:51:50;98204.72;;;20.98;79.61
20350;BME280;10332;50.208;18.988;2022-08-04T04:54:33;98210.19;;;21.05;79.35
20350;BME280;10332;50.208;18.988;2022-08-04T04:57:20;98204.19;;;21.11;79.12
20350;BME280;10332;50.208;18.988;2022-08-04T05:00:10;98209.31;;;21.20;78.96
20350;BME280;10332;50.208;18.988;2022-08-04T05:03:07;98205.19;;;21.26;79.03
20350;BME280;10332;50.208;18.988;2022-08-04T05:06:04;98209.69;;;21.34;78.74
20350;BME280;10332;50.208;18.988;2022-08-04T05:08:50;98205.00;;;21.44;79.25
20350;BME280;10332;50.208;18.988;2022-08-04T05:14:30;98203.78;;;21.54;79.62
20350;BME280;10332;50.208;18.988;2022-08-04T05:17:29;98216.56;;;21.67;78.46
20350;BME280;10332;50.208;18.988;2022-08-04T05:20:09;98213.88;;;21.75;78.77
20350;BME280;10332;50.208;18.988;2022-08-04T05:22:53;98217.19;;;21.77;78.73
20350;BME280;10332;50.208;18.988;2022-08-04T05:28:02;98217.81;;;21.88;78.53
20350;BME280;10332;50.208;18.988;2022-08-04T05:30:38;98219.41;;;21.97;78.26
20350;BME280;10332;50.208;18.988;2022-08-04T05:33:24;98218.06;;;22.01;77.86
20350;BME280;10332;50.208;18.988;2022-08-04T05:35:59;98218.56;;;22.04;77.81
20350;BME280;10332;50.208;18.988;2022-08-04T05:38:53;98226.03;;;22.09;77.50
20350;BME280;10332;50.208;18.988;2022-08-04T05:41:22;98211.03;;;22.16;77.53
20350;BME280;10332;50.208;18.988;2022-08-04T05:44:00;98221.44;;;22.26;77.32
20350;BME280;10332;50.208;18.988;2022-08-04T05:46:29;98218.91;;;22.32;77.15
20350;BME280;10332;50.208;18.988;2022-08-04T05:48:57;98220.06;;;22.38;76.94
20350;BME280;10332;50.208;18.988;2022-08-04T05:51:25;98218.50;;;22.44;76.99
20350;BME280;10332;50.208;18.988;2022-08-04T05:53:54;98215.78;;;22.52;76.42
20350;BME280;10332;50.208;18.988;2022-08-04T05:56:23;98221.25;;;22.58;76.15
20350;BME280;10332;50.208;18.988;2022-08-04T05:58:51;98224.19;;;22.63;76.19
20350;BME280;10332;50.208;18.988;2022-08-04T06:01:22;98226.50;;;22.66;75.72
20350;BME280;10332;50.208;18.988;2022-08-04T06:03:51;98223.94;;;22.73;75.49
20350;BME280;10332;50.208;18.988;2022-08-04T06:06:22;98231.56;;;22.84;75.12
20350;BME280;10332;50.208;18.988;2022-08-04T06:08:54;98223.50;;;22.92;74.67
20350;BME280;10332;50.208;18.988;2022-08-04T06:11:26;98219.91;;;23.00;74.75
20350;BME280;10332;50.208;18.988;2022-08-04T06:14:02;98226.38;;;23.06;74.36
20350;BME280;10332;50.208;18.988;2022-08-04T06:16:42;98226.31;;;23.14;73.63
20350;BME280;10332;50.208;18.988;2022-08-04T06:19:18;98231.56;;;23.22;73.38
20350;BME280;10332;50.208;18.988;2022-08-04T06:22:11;98229.81;;;23.29;72.45
20350;BME280;10332;50.208;18.988;2022-08-04T06:24:44;98234.06;;;23.38;71.94
20350;BME280;10332;50.208;18.988;2022-08-04T06:27:15;98230.09;;;23.49;71.42
20350;BME280;10332;50.208;18.988;2022-08-04T06:29:45;98233.16;;;23.61;71.27
20350;BME280;10332;50.208;18.988;2022-08-04T06:32:18;98235.03;;;23.75;71.29
20350;BME280;10332;50.208;18.988;2022-08-04T06:35:09;98239.34;;;23.91;70.94
20350;BME280;10332;50.208;18.988;2022-08-04T06:37:37;98237.84;;;24.03;70.74
20350;BME280;10332;50.208;18.988;2022-08-04T06:40:16;98239.56;;;24.11;69.71
20350;BME280;10332;50.208;18.988;2022-08-04T06:43:01;98234.66;;;24.29;68.98
20350;BME280;10332;50.208;18.988;2022-08-04T06:45:31;98236.22;;;24.38;68.94
20350;BME280;10332;50.208;18.988;2022-08-04T06:48:03;98234.69;;;24.50;68.57
20350;BME280;10332;50.208;18.988;2022-08-04T06:50:34;98236.50;;;24.65;68.04
20350;BME280;10332;50.208;18.988;2022-08-04T06:53:24;98244.25;;;24.81;67.38
20350;BME280;10332;50.208;18.988;2022-08-04T06:55:53;98242.91;;;24.91;67.07
20350;BME280;10332;50.208;18.988;2022-08-04T06:58:24;98237.06;;;25.03;66.64
20350;BME280;10332;50.208;18.988;2022-08-04T07:00:54;98240.38;;;25.05;65.87
20350;BME280;10332;50.208;18.988;2022-08-04T07:03:29;98245.66;;;25.19;65.85
20350;BME280;10332;50.208;18.988;2022-08-04T07:05:58;98240.16;;;25.28;65.55
20350;BME280;10332;50.208;18.988;2022-08-04T07:08:41;98237.19;;;25.44;65.74
20350;BME280;10332;50.208;18.988;2022-08-04T07:11:09;98239.13;;;25.57;65.50
20350;BME280;10332;50.208;18.988;2022-08-04T07:13:39;98236.50;;;25.70;65.17
20350;BME280;10332;50.208;18.988;2022-08-04T07:16:14;98229.16;;;25.79;65.09
20350;BME280;10332;50.208;18.988;2022-08-04T07:18:42;98234.81;;;25.97;64.32
20350;BME280;10332;50.208;18.988;2022-08-04T07:21:18;98229.53;;;26.10;64.01
20350;BME280;10332;50.208;18.988;2022-08-04T07:23:47;98234.53;;;26.26;63.45
20350;BME280;10332;50.208;18.988;2022-08-04T07:26:16;98228.34;;;26.32;63.14
20350;BME280;10332;50.208;18.988;2022-08-04T07:28:45;98229.03;;;26.41;62.33
20350;BME280;10332;50.208;18.988;2022-08-04T07:31:17;98229.50;;;26.51;61.81
20350;BME280;10332;50.208;18.988;2022-08-04T07:34:03;98239.63;;;26.69;61.88
20350;BME280;10332;50.208;18.988;2022-08-04T07:36:54;98234.88;;;26.78;61.36
20350;BME280;10332;50.208;18.988;2022-08-04T07:39:26;98227.88;;;26.83;60.42
20350;BME280;10332;50.208;18.988;2022-08-04T07:42:00;98232.81;;;26.93;59.42
20350;BME280;10332;50.208;18.988;2022-08-04T07:44:33;98232.63;;;27.01;57.46
20350;BME280;10332;50.208;18.988;2022-08-04T07:47:04;98235.13;;;27.16;58.01
20350;BME280;10332;50.208;18.988;2022-08-04T07:49:32;98231.59;;;27.22;57.98
20350;BME280;10332;50.208;18.988;2022-08-04T07:52:20;98237.78;;;27.29;57.55
20350;BME280;10332;50.208;18.988;2022-08-04T07:54:49;98230.78;;;27.28;55.97
20350;BME280;10332;50.208;18.988;2022-08-04T07:57:18;98235.72;;;27.38;55.48
20350;BME280;10332;50.208;18.988;2022-08-04T08:00:08;98234.91;;;27.51;55.74
20350;BME280;10332;50.208;18.988;2022-08-04T08:02:37;98231.59;;;27.68;55.75
20350;BME280;10332;50.208;18.988;2022-08-04T08:05:09;98234.22;;;27.75;54.41
20350;BME280;10332;50.208;18.988;2022-08-04T08:07:37;98234.59;;;27.85;54.19
20350;BME280;10332;50.208;18.988;2022-08-04T08:10:21;98231.47;;;28.02;54.24
20350;BME280;10332;50.208;18.988;2022-08-04T08:12:51;98225.25;;;28.08;53.46
20350;BME280;10332;50.208;18.988;2022-08-04T08:15:20;98233.44;;;28.19;52.06
20350;BME280;10332;50.208;18.988;2022-08-04T08:17:48;98230.13;;;28.24;51.80
20350;BME280;10332;50.208;18.988;2022-08-04T08:20:29;98237.31;;;28.37;51.58
20350;BME280;10332;50.208;18.988;2022-08-04T08:23:00;98236.69;;;28.41;49.93
20350;BME280;10332;50.208;18.988;2022-08-04T08:25:32;98231.22;;;28.54;51.00
20350;BME280;10332;50.208;18.988;2022-08-04T08:28:03;98238.19;;;28.69;49.96
20350;BME280;10332;50.208;18.988;2022-08-04T08:30:33;98241.19;;;28.79;49.09
20350;BME280;10332;50.208;18.988;2022-08-04T08:33:08;98237.44;;;28.87;48.70
20350;BME280;10332;50.208;18.988;2022-08-04T08:35:52;98239.25;;;28.93;48.31
20350;BME280;10332;50.208;18.988;2022-08-04T08:38:47;98240.22;;;29.05;48.30
20350;BME280;10332;50.208;18.988;2022-08-04T09:00:22;98247.09;;;30.06;45.89
20350;BME280;10332;50.208;18.988;2022-08-04T09:06:46;98245.59;;;30.28;44.35
20350;BME280;10332;50.208;18.988;2022-08-04T09:12:38;98246.19;;;30.60;44.65
20350;BME280;10332;50.208;18.988;2022-08-04T09:15:13;98245.19;;;30.73;43.48
20350;BME280;10332;50.208;18.988;2022-08-04T09:17:47;98248.38;;;30.82;43.30
20350;BME280;10332;50.208;18.988;2022-08-04T09:20:33;98242.91;;;31.00;43.08
20350;BME280;10332;50.208;18.988;2022-08-04T09:23:12;98258.00;;;31.31;42.78
20350;BME280;10332;50.208;18.988;2022-08-04T09:25:51;98255.31;;;31.66;39.65
20350;BME280;10332;50.208;18.988;2022-08-04T09:28:28;98256.53;;;34.67;35.42
20350;BME280;10332;50.208;18.988;2022-08-04T09:31:23;98269.50;;;42.97;25.55
20350;BME280;10332;50.208;18.988;2022-08-04T09:34:46;98281.25;;;50.73;18.72
20350;BME280;10332;50.208;18.988;2022-08-04T09:37:47;98289.09;;;55.17;14.45
20350;BME280;10332;50.208;18.988;2022-08-04T09:40:33;98297.69;;;58.57;12.38
20350;BME280;10332;50.208;18.988;2022-08-04T09:46:45;98295.34;;;63.61;9.60
20350;BME280;10332;50.208;18.988;2022-08-04T09:49:57;98291.97;;;65.20;8.48
20350;BME280;10332;50.208;18.988;2022-08-04T09:55:59;98278.94;;;67.92;7.44
20350;BME280;10332;50.208;18.988;2022-08-04T10:01:24;98265.16;;;67.67;6.10
20350;BME280;10332;50.208;18.988;2022-08-04T10:04:00;98272.47;;;69.65;6.18
20350;BME280;10332;50.208;18.988;2022-08-04T10:09:54;98270.25;;;69.95;5.52
20350;BME280;10332;50.208;18.988;2022-08-04T10:15:02;98269.09;;;71.28;5.55
20350;BME280;10332;50.208;18.988;2022-08-04T10:18:27;98268.53;;;71.89;4.94
20350;BME280;10332;50.208;18.988;2022-08-04T10:21:26;98253.19;;;71.33;5.26
20350;BME280;10332;50.208;18.988;2022-08-04T10:27:06;98254.53;;;72.64;5.55
20350;BME280;10332;50.208;18.988;2022-08-04T10:29:44;98259.44;;;73.14;4.91
20350;BME280;10332;50.208;18.988;2022-08-04T10:32:28;98264.13;;;73.23;5.14
20350;BME280;10332;50.208;18.988;2022-08-04T10:35:11;98257.25;;;73.48;4.56
20350;BME280;10332;50.208;18.988;2022-08-04T10:38:04;98252.44;;;73.73;4.78
20350;BME280;10332;50.208;18.988;2022-08-04T10:40:45;98252.47;;;74.09;4.62
20350;BME280;10332;50.208;18.988;2022-08-04T10:43:53;98235.81;;;73.38;4.83
20350;BME280;10332;50.208;18.988;2022-08-04T10:46:38;98241.13;;;73.75;4.44
20350;BME280;10332;50.208;18.988;2022-08-04T10:49:21;98230.66;;;73.20;4.60
20350;BME280;10332;50.208;18.988;2022-08-04T10:57:50;98153.34;;;59.57;9.73
20350;BME280;10332;50.208;18.988;2022-08-04T11:00:23;98147.41;;;55.80;11.55
20350;BME280;10332;50.208;18.988;2022-08-04T11:05:51;98142.28;;;50.03;14.60
20350;BME280;10332;50.208;18.988;2022-08-04T11:08:30;98154.13;;;47.81;16.01
20350;BME280;10332;50.208;18.988;2022-08-04T11:11:30;98156.22;;;45.86;17.69
20350;BME280;10332;50.208;18.988;2022-08-04T11:14:30;98147.22;;;44.13;19.40
20350;BME280;10332;50.208;18.988;2022-08-04T11:17:31;98148.34;;;43.16;20.29
20350;BME280;10332;50.208;18.988;2022-08-04T11:20:28;98162.16;;;42.21;20.66
20350;BME280;10332;50.208;18.988;2022-08-04T11:23:09;98155.72;;;41.34;21.10
20350;BME280;10332;50.208;18.988;2022-08-04T11:25:59;98145.16;;;40.44;22.15
20350;BME280;10332;50.208;18.988;2022-08-04T11:31:35;98157.44;;;39.13;23.56
20350;BME280;10332;50.208;18.988;2022-08-04T11:34:26;98157.56;;;38.69;23.99
20350;BME280;10332;50.208;18.988;2022-08-04T11:37:24;98159.72;;;38.27;24.28
20350;BME280;10332;50.208;18.988;2022-08-04T11:40:10;98153.25;;;38.08;24.36
20350;BME280;10332;50.208;18.988;2022-08-04T11:42:51;98156.56;;;38.05;24.89
20350;BME280;10332;50.208;18.988;2022-08-04T11:45:43;98154.19;;;37.88;25.38
20350;BME280;10332;50.208;18.988;2022-08-04T11:48:32;98148.81;;;37.68;25.40
20350;BME280;10332;50.208;18.988;2022-08-04T11:51:04;98141.53;;;37.48;26.32
20350;BME280;10332;50.208;18.988;2022-08-04T11:53:37;98150.28;;;37.30;25.97
20350;BME280;10332;50.208;18.988;2022-08-04T11:56:11;98145.97;;;37.13;26.47
20350;BME280;10332;50.208;18.988;2022-08-04T11:58:55;98148.94;;;37.17;27.14
20350;BME280;10332;50.208;18.988;2022-08-04T12:08:02;98147.03;;;37.02;26.83
20350;BME280;10332;50.208;18.988;2022-08-04T12:16:47;98131.25;;;36.99;26.76
20350;BME280;10332;50.208;18.988;2022-08-04T12:22:28;98128.81;;;37.08;27.51
20350;BME280;10332;50.208;18.988;2022-08-04T12:25:13;98129.59;;;37.18;27.40
20350;BME280;10332;50.208;18.988;2022-08-04T12:27:48;98130.16;;;37.10;26.33
20350;BME280;10332;50.208;18.988;2022-08-04T12:30:19;98125.25;;;37.02;26.54
20350;BME280;10332;50.208;18.988;2022-08-04T12:33:19;98122.28;;;36.93;26.79
20350;BME280;10332;50.208;18.988;2022-08-04T12:36:39;98116.03;;;36.62;27.23
20350;BME280;10332;50.208;18.988;2022-08-04T12:39:18;98117.94;;;36.52;27.48
20350;BME280;10332;50.208;18.988;2022-08-04T12:42:10;98113.59;;;36.41;27.47
20350;BME280;10332;50.208;18.988;2022-08-04T12:44:46;98111.91;;;36.29;27.74
20350;BME280;10332;50.208;18.988;2022-08-04T12:47:26;98114.88;;;36.18;27.33
20350;BME280;10332;50.208;18.988;2022-08-04T12:50:02;98116.25;;;36.20;27.36
20350;BME280;10332;50.208;18.988;2022-08-04T12:52:46;98111.91;;;36.34;28.25
20350;BME280;10332;50.208;18.988;2022-08-04T12:55:32;98108.16;;;36.41;27.68
20350;BME280;10332;50.208;18.988;2022-08-04T12:58:03;98112.78;;;36.40;28.11
20350;BME280;10332;50.208;18.988;2022-08-04T13:00:38;98110.31;;;36.38;28.33
20350;BME280;10332;50.208;18.988;2022-08-04T13:03:15;98113.00;;;36.23;28.93
20350;BME280;10332;50.208;18.988;2022-08-04T13:05:45;98108.38;;;36.24;28.02
20350;BME280;10332;50.208;18.988;2022-08-04T13:08:14;98105.34;;;36.20;28.05
20350;BME280;10332;50.208;18.988;2022-08-04T13:10:49;98101.31;;;36.23;27.49
20350;BME280;10332;50.208;18.988;2022-08-04T13:13:28;98098.84;;;36.16;27.64
20350;BME280;10332;50.208;18.988;2022-08-04T13:16:07;98092.06;;;36.14;28.50
20350;BME280;10332;50.208;18.988;2022-08-04T13:18:47;98096.94;;;36.17;28.53
20350;BME280;10332;50.208;18.988;2022-08-04T13:21:21;98086.59;;;36.08;27.81
20350;BME280;10332;50.208;18.988;2022-08-04T13:24:13;98072.72;;;36.00;27.16
20350;BME280;10332;50.208;18.988;2022-08-04T13:27:05;98078.13;;;35.95;27.45
20350;BME280;10332;50.208;18.988;2022-08-04T13:29:44;98080.31;;;35.93;27.86
20350;BME280;10332;50.208;18.988;2022-08-04T13:32:31;98081.06;;;35.83;27.55
20350;BME280;10332;50.208;18.988;2022-08-04T13:35:01;98077.88;;;36.01;27.41
20350;BME280;10332;50.208;18.988;2022-08-04T13:37:35;98080.88;;;36.20;27.74
20350;BME280;10332;50.208;18.988;2022-08-04T13:40:11;98075.47;;;36.15;26.86
20350;BME280;10332;50.208;18.988;2022-08-04T13:42:46;98078.72;;;36.27;26.96
20350;BME280;10332;50.208;18.988;2022-08-04T13:45:19;98076.53;;;36.29;27.16
20350;BME280;10332;50.208;18.988;2022-08-04T13:47:50;98073.31;;;36.43;27.30
20350;BME280;10332;50.208;18.988;2022-08-04T13:50:23;98076.56;;;36.45;27.13
20350;BME280;10332;50.208;18.988;2022-08-04T13:52:57;98080.94;;;36.41;27.46
20350;BME280;10332;50.208;18.988;2022-08-04T13:55:32;98078.72;;;36.32;27.66
20350;BME280;10332;50.208;18.988;2022-08-04T13:58:22;98074.38;;;36.16;27.03
20350;BME280;10332;50.208;18.988;2022-08-04T14:01:01;98077.88;;;36.22;27.39
20350;BME280;10332;50.208;18.988;2022-08-04T14:03:40;98081.97;;;36.19;27.73
20350;BME280;10332;50.208;18.988;2022-08-04T14:06:25;98081.13;;;36.03;27.83
20350;BME280;10332;50.208;18.988;2022-08-04T14:09:18;98071.88;;;35.89;27.55
20350;BME280;10332;50.208;18.988;2022-08-04T14:12:13;98071.28;;;35.82;27.67
20350;BME280;10332;50.208;18.988;2022-08-04T14:15:01;98059.81;;;35.60;27.72
20350;BME280;10332;50.208;18.988;2022-08-04T14:17:28;98073.03;;;35.41;28.04
20350;BME280;10332;50.208;18.988;2022-08-04T14:20:00;98064.34;;;35.39;28.29
20350;BME280;10332;50.208;18.988;2022-08-04T14:22:33;98065.47;;;35.48;28.19
20350;BME280;10332;50.208;18.988;2022-08-04T14:25:15;98067.63;;;35.41;28.22
20350;BME280;10332;50.208;18.988;2022-08-04T14:27:53;98070.91;;;35.43;28.97
20350;BME280;10332;50.208;18.988;2022-08-04T14:30:35;98068.03;;;35.22;28.84
20350;BME280;10332;50.208;18.988;2022-08-04T14:33:11;98054.47;;;35.22;29.65
20350;BME280;10332;50.208;18.988;2022-08-04T14:35:59;98060.16;;;35.16;29.16
20350;BME280;10332;50.208;18.988;2022-08-04T14:38:53;98054.69;;;35.06;28.62
20350;BME280;10332;50.208;18.988;2022-08-04T14:41:29;98052.69;;;34.91;27.86
20350;BME280;10332;50.208;18.988;2022-08-04T14:44:02;98054.53;;;34.85;28.14
20350;BME280;10332;50.208;18.988;2022-08-04T14:46:29;98051.31;;;34.88;28.54
20350;BME280;10332;50.208;18.988;2022-08-04T14:49:11;98048.81;;;34.87;28.61
20350;BME280;10332;50.208;18.988;2022-08-04T14:52:04;98052.84;;;34.74;28.43
20350;BME280;10332;50.208;18.988;2022-08-04T14:54:34;98047.66;;;34.72;28.70
20350;BME280;10332;50.208;18.988;2022-08-04T14:57:05;98043.53;;;34.65;29.08
20350;BME280;10332;50.208;18.988;2022-08-04T14:59:50;98050.25;;;34.52;29.81
20350;BME280;10332;50.208;18.988;2022-08-04T15:02:28;98048.91;;;34.55;29.49
20350;BME280;10332;50.208;18.988;2022-08-04T15:04:57;98042.28;;;34.40;29.56
20350;BME280;10332;50.208;18.988;2022-08-04T15:07:45;98045.56;;;34.42;30.15
20350;BME280;10332;50.208;18.988;2022-08-04T15:10:13;98041.91;;;34.32;29.92
20350;BME280;10332;50.208;18.988;2022-08-04T15:12:41;98040.75;;;34.23;29.87
20350;BME280;10332;50.208;18.988;2022-08-04T15:15:09;98043.44;;;34.18;30.43
20350;BME280;10332;50.208;18.988;2022-08-04T15:17:57;98047.50;;;34.15;30.18
20350;BME280;10332;50.208;18.988;2022-08-04T15:20:25;98054.31;;;34.23;30.04
20350;BME280;10332;50.208;18.988;2022-08-04T15:22:53;98045.63;;;34.21;30.40
20350;BME280;10332;50.208;18.988;2022-08-04T15:25:20;98050.78;;;34.22;30.39
20350;BME280;10332;50.208;18.988;2022-08-04T15:27:50;98040.75;;;34.23;29.88
20350;BME280;10332;50.208;18.988;2022-08-04T15:30:17;98047.81;;;34.24;30.04
20350;BME280;10332;50.208;18.988;2022-08-04T15:32:55;98043.44;;;34.18;30.10
20350;BME280;10332;50.208;18.988;2022-08-04T15:35:25;98043.44;;;34.18;30.13
20350;BME280;10332;50.208;18.988;2022-08-04T15:38:17;98048.97;;;34.01;30.16
20350;BME280;10332;50.208;18.988;2022-08-04T15:41:08;98044.00;;;33.93;29.89
20350;BME280;10332;50.208;18.988;2022-08-04T15:47:13;98042.53;;;33.85;30.44
20350;BME280;10332;50.208;18.988;2022-08-04T15:49:42;98039.84;;;33.85;30.49
20350;BME280;10332;50.208;18.988;2022-08-04T15:52:14;98038.66;;;33.76;30.48
20350;BME280;10332;50.208;18.988;2022-08-04T15:54:44;98034.22;;;33.65;30.86
20350;BME280;10332;50.208;18.988;2022-08-04T15:58:24;98036.38;;;33.41;31.58
20350;BME280;10332;50.208;18.988;2022-08-04T16:19:04;98038.09;;;32.86;33.50
20350;BME280;10332;50.208;18.988;2022-08-04T16:21:58;98035.78;;;32.78;34.15
20350;BME280;10332;50.208;18.988;2022-08-04T16:24:38;98031.94;;;32.74;34.61
20350;BME280;10332;50.208;18.988;2022-08-04T16:27:11;98035.59;;;32.63;34.37
20350;BME280;10332;50.208;18.988;2022-08-04T16:29:43;98031.47;;;32.60;34.57
20350;BME280;10332;50.208;18.988;2022-08-04T16:32:21;98034.41;;;32.59;34.50
20350;BME280;10332;50.208;18.988;2022-08-04T16:34:56;98035.84;;;32.44;34.86
20350;BME280;10332;50.208;18.988;2022-08-04T16:37:36;98030.50;;;32.50;34.99
20350;BME280;10332;50.208;18.988;2022-08-04T16:40:32;98027.13;;;32.42;35.26
20350;BME280;10332;50.208;18.988;2022-08-04T16:43:17;98035.19;;;32.37;35.67
20350;BME280;10332;50.208;18.988;2022-08-04T16:45:59;98030.06;;;32.24;35.67
20350;BME280;10332;50.208;18.988;2022-08-04T16:48:34;98033.00;;;32.23;35.89
20350;BME280;10332;50.208;18.988;2022-08-04T16:51:08;98031.38;;;32.22;35.99
20350;BME280;10332;50.208;18.988;2022-08-04T16:53:39;98035.66;;;32.17;36.06
20350;BME280;10332;50.208;18.988;2022-08-04T16:56:30;98028.25;;;32.13;36.48
20350;BME280;10332;50.208;18.988;2022-08-04T16:59:11;98035.81;;;32.11;36.69
20350;BME280;10332;50.208;18.988;2022-08-04T17:01:46;98035.03;;;31.99;37.48
20350;BME280;10332;50.208;18.988;2022-08-04T17:04:15;98035.03;;;31.99;37.19
20350;BME280;10332;50.208;18.988;2022-08-04T17:06:44;98034.16;;;31.93;37.09
20350;BME280;10332;50.208;18.988;2022-08-04T17:09:15;98032.78;;;31.79;36.99
20350;BME280;10332;50.208;18.988;2022-08-04T17:11:46;98030.25;;;31.60;37.66
20350;BME280;10332;50.208;18.988;2022-08-04T17:14:22;98037.94;;;31.52;37.93
20350;BME280;10332;50.208;18.988;2022-08-04T17:16:52;98033.41;;;31.41;37.94
20350;BME280;10332;50.208;18.988;2022-08-04T17:19:22;98031.00;;;31.27;37.72
20350;BME280;10332;50.208;18.988;2022-08-04T17:22:03;98033.22;;;31.07;38.66
20350;BME280;10332;50.208;18.988;2022-08-04T17:24:35;98035.91;;;31.07;38.67
20350;BME280;10332;50.208;18.988;2022-08-04T17:27:05;98032.19;;;30.96;38.87
20350;BME280;10332;50.208;18.988;2022-08-04T17:29:53;98032.78;;;30.87;38.83
20350;BME280;10332;50.208;18.988;2022-08-04T17:32:21;98039.00;;;30.75;39.52